sensor_id;sensor_type;location;lat;lon;timestamp;P1;durP1;ratioP1;P2;durP2;ratioP2
62435;SDS011;48480;50.252;18.848;2023-12-04T00:02:29;47.20;;;21.30;;
62435;SDS011;48480;50.252;18.848;2023-12-04T00:05:13;40.20;;;19.40;;
62435;SDS011;48480;50.252;18.848;2023-12-04T00:07:57;44.00;;;21.30;;
62435;SDS011;48480;50.252;18.848;2023-12-04T00:10:41;49.90;;;21.40;;
62435;SDS011;48480;50.252;18.848;2023-12-04T00:13:25;48.00;;;18.10;;
62435;SDS011;48480;50.252;18.848;2023-12-04T00:16:12;58.90;;;21.80;;
62435;SDS011;48480;50.252;18.848;2023-12-04T00:18:56;81.00;;;32.60;;
62435;SDS011;48480;50.252;18.848;2023-12-04T00:21:40;87.60;;;31.10;;
62435;SDS011;48480;50.252;18.848;2023-12-04T00:24:24;43.80;;;20.60;;
62435;SDS011;48480;50.252;18.848;2023-12-04T00:27:09;46.90;;;22.80;;
62435;SDS011;48480;50.252;18.848;2023-12-04T00:29:53;57.10;;;24.80;;
62435;SDS011;48480;50.252;18.848;2023-12-04T00:32:37;45.40;;;21.90;;
62435;SDS011;48480;50.252;18.848;2023-12-04T00:35:21;45.20;;;20.30;;
62435;SDS011;48480;50.252;18.848;2023-12-04T00:38:05;51.50;;;21.10;;
62435;SDS011;48480;50.252;18.848;2023-12-04T00:40:49;49.40;;;20.90;;
62435;SDS011;48480;50.252;18.848;2023-12-04T00:43:34;54.80;;;21.90;;
62435;SDS011;48480;50.252;18.848;2023-12-04T00:46:19;55.40;;;21.70;;
62435;SDS011;48480;50.252;18.848;2023-12-04T00:49:03;55.30;;;24.80;;
62435;SDS011;48480;50.252;18.848;2023-12-04T00:51:47;50.50;;;23.20;;
62435;SDS011;48480;50.252;18.848;2023-12-04T00:54:31;61.10;;;25.60;;
62435;SDS011;48480;50.252;18.848;2023-12-04T00:57:15;45.10;;;21.80;;
62435;SDS011;48480;50.252;18.848;2023-12-04T00:59:59;46.50;;;22.30;;
62435;SDS011;48480;50.252;18.848;2023-12-04T01:02:43;48.00;;;22.10;;
62435;SDS011;48480;50.252;18.848;2023-12-04T01:05:27;64.60;;;26.90;;
62435;SDS011;48480;50.252;18.848;2023-12-04T01:08:11;52.20;;;25.50;;
62435;SDS011;48480;50.252;18.848;2023-12-04T01:10:55;59.70;;;27.10;;
62435;SDS011;48480;50.252;18.848;2023-12-04T01:13:39;56.80;;;27.50;;
62435;SDS011;48480;50.252;18.848;2023-12-04T01:16:24;59.80;;;27.70;;
62435;SDS011;48480;50.252;18.848;2023-12-04T01:19:08;60.20;;;27.80;;
62435;SDS011;48480;50.252;18.848;2023-12-04T01:21:52;66.30;;;27.90;;
62435;SDS011;48480;50.252;18.848;2023-12-04T01:24:37;70.10;;;32.90;;
62435;SDS011;48480;50.252;18.848;2023-12-04T01:27:22;50.80;;;25.30;;
62435;SDS011;48480;50.252;18.848;2023-12-04T01:30:06;37.40;;;21.00;;
62435;SDS011;48480;50.252;18.848;2023-12-04T01:32:54;36.80;;;20.20;;
62435;SDS011;48480;50.252;18.848;2023-12-04T01:35:38;32.70;;;18.10;;
62435;SDS011;48480;50.252;18.848;2023-12-04T01:38:22;39.80;;;19.30;;
62435;SDS011;48480;50.252;18.848;2023-12-04T01:41:07;32.70;;;18.90;;
62435;SDS011;48480;50.252;18.848;2023-12-04T01:43:51;35.80;;;18.20;;
62435;SDS011;48480;50.252;18.848;2023-12-04T01:46:36;36.10;;;17.40;;
62435;SDS011;48480;50.252;18.848;2023-12-04T01:49:22;33.10;;;17.10;;
62435;SDS011;48480;50.252;18.848;2023-12-04T01:52:08;34.70;;;17.80;;
62435;SDS011;48480;50.252;18.848;2023-12-04T01:54:53;39.00;;;18.80;;
62435;SDS011;48480;50.252;18.848;2023-12-04T01:57:37;35.40;;;19.30;;
62435;SDS011;48480;50.252;18.848;2023-12-04T02:00:22;35.70;;;19.60;;
62435;SDS011;48480;50.252;18.848;2023-12-04T02:03:06;34.60;;;19.50;;
62435;SDS011;48480;50.252;18.848;2023-12-04T02:05:53;35.10;;;18.60;;
62435;SDS011;48480;50.252;18.848;2023-12-04T02:08:39;37.10;;;18.60;;
62435;SDS011;48480;50.252;18.848;2023-12-04T02:11:24;34.30;;;18.40;;
62435;SDS011;48480;50.252;18.848;2023-12-04T02:14:09;37.50;;;20.50;;
62435;SDS011;48480;50.252;18.848;2023-12-04T02:16:53;34.90;;;18.00;;
62435;SDS011;48480;50.252;18.848;2023-12-04T02:19:40;38.40;;;18.50;;
62435;SDS011;48480;50.252;18.848;2023-12-04T02:22:24;29.10;;;17.00;;
62435;SDS011;48480;50.252;18.848;2023-12-04T02:25:08;33.30;;;17.30;;
62435;SDS011;48480;50.252;18.848;2023-12-04T02:27:56;32.60;;;16.20;;
62435;SDS011;48480;50.252;18.848;2023-12-04T02:30:43;36.00;;;16.80;;
62435;SDS011;48480;50.252;18.848;2023-12-04T02:33:30;27.90;;;15.70;;
62435;SDS011;48480;50.252;18.848;2023-12-04T02:36:16;26.40;;;13.50;;
62435;SDS011;48480;50.252;18.848;2023-12-04T02:39:01;26.90;;;13.20;;
62435;SDS011;48480;50.252;18.848;2023-12-04T02:41:46;26.10;;;14.30;;
62435;SDS011;48480;50.252;18.848;2023-12-04T02:44:31;32.50;;;15.80;;
62435;SDS011;48480;50.252;18.848;2023-12-04T02:47:15;38.40;;;18.90;;
62435;SDS011;48480;50.252;18.848;2023-12-04T02:49:59;35.80;;;18.80;;
62435;SDS011;48480;50.252;18.848;2023-12-04T02:52:44;29.30;;;16.40;;
62435;SDS011;48480;50.252;18.848;2023-12-04T02:55:28;32.60;;;18.00;;
62435;SDS011;48480;50.252;18.848;2023-12-04T02:58:13;34.40;;;18.40;;
62435;SDS011;48480;50.252;18.848;2023-12-04T03:00:57;34.70;;;18.90;;
62435;SDS011;48480;50.252;18.848;2023-12-04T03:03:41;37.40;;;19.50;;
62435;SDS011;48480;50.252;18.848;2023-12-04T03:06:25;36.20;;;17.80;;
62435;SDS011;48480;50.252;18.848;2023-12-04T03:09:10;35.30;;;16.40;;
62435;SDS011;48480;50.252;18.848;2023-12-04T03:11:54;26.30;;;15.00;;
62435;SDS011;48480;50.252;18.848;2023-12-04T03:14:38;30.00;;;14.60;;
62435;SDS011;48480;50.252;18.848;2023-12-04T03:17:22;27.70;;;14.10;;
62435;SDS011;48480;50.252;18.848;2023-12-04T03:20:06;24.60;;;14.70;;
62435;SDS011;48480;50.252;18.848;2023-12-04T03:22:52;28.90;;;13.90;;
62435;SDS011;48480;50.252;18.848;2023-12-04T03:25:36;30.60;;;16.10;;
62435;SDS011;48480;50.252;18.848;2023-12-04T03:28:20;30.10;;;15.20;;
62435;SDS011;48480;50.252;18.848;2023-12-04T03:31:04;33.20;;;16.30;;
62435;SDS011;48480;50.252;18.848;2023-12-04T03:33:49;37.10;;;17.80;;
62435;SDS011;48480;50.252;18.848;2023-12-04T03:36:34;28.30;;;14.40;;
62435;SDS011;48480;50.252;18.848;2023-12-04T03:39:18;31.70;;;16.20;;
62435;SDS011;48480;50.252;18.848;2023-12-04T03:42:03;35.80;;;19.20;;
62435;SDS011;48480;50.252;18.848;2023-12-04T03:44:47;32.80;;;19.40;;
62435;SDS011;48480;50.252;18.848;2023-12-04T03:47:31;29.00;;;16.40;;
62435;SDS011;48480;50.252;18.848;2023-12-04T03:50:15;26.90;;;17.20;;
62435;SDS011;48480;50.252;18.848;2023-12-04T03:53:00;35.70;;;19.00;;
62435;SDS011;48480;50.252;18.848;2023-12-04T03:55:44;44.30;;;23.00;;
62435;SDS011;48480;50.252;18.848;2023-12-04T03:58:28;31.80;;;17.90;;
62435;SDS011;48480;50.252;18.848;2023-12-04T04:01:12;29.00;;;16.90;;
62435;SDS011;48480;50.252;18.848;2023-12-04T04:03:56;37.40;;;19.40;;
62435;SDS011;48480;50.252;18.848;2023-12-04T04:06:41;30.50;;;15.80;;
62435;SDS011;48480;50.252;18.848;2023-12-04T04:09:26;38.80;;;20.90;;
62435;SDS011;48480;50.252;18.848;2023-12-04T04:12:10;47.40;;;23.50;;
62435;SDS011;48480;50.252;18.848;2023-12-04T04:14:55;37.00;;;21.70;;
62435;SDS011;48480;50.252;18.848;2023-12-04T04:17:39;36.80;;;20.00;;
62435;SDS011;48480;50.252;18.848;2023-12-04T04:20:23;32.90;;;17.80;;
62435;SDS011;48480;50.252;18.848;2023-12-04T04:23:07;29.70;;;17.80;;
62435;SDS011;48480;50.252;18.848;2023-12-04T04:25:51;36.30;;;19.50;;
62435;SDS011;48480;50.252;18.848;2023-12-04T04:28:35;40.00;;;19.50;;
62435;SDS011;48480;50.252;18.848;2023-12-04T04:31:20;33.60;;;18.60;;
62435;SDS011;48480;50.252;18.848;2023-12-04T04:34:04;40.30;;;21.10;;
62435;SDS011;48480;50.252;18.848;2023-12-04T04:36:48;36.60;;;19.20;;
62435;SDS011;48480;50.252;18.848;2023-12-04T04:39:33;31.90;;;18.40;;
62435;SDS011;48480;50.252;18.848;2023-12-04T04:42:17;34.40;;;18.70;;
62435;SDS011;48480;50.252;18.848;2023-12-04T04:45:01;33.60;;;18.70;;
62435;SDS011;48480;50.252;18.848;2023-12-04T04:47:44;34.60;;;19.80;;
62435;SDS011;48480;50.252;18.848;2023-12-04T04:50:28;35.20;;;19.10;;
62435;SDS011;48480;50.252;18.848;2023-12-04T04:53:13;33.50;;;18.90;;
62435;SDS011;48480;50.252;18.848;2023-12-04T04:55:57;33.30;;;17.50;;
62435;SDS011;48480;50.252;18.848;2023-12-04T04:58:41;37.40;;;18.10;;
62435;SDS011;48480;50.252;18.848;2023-12-04T05:01:26;33.00;;;17.00;;
62435;SDS011;48480;50.252;18.848;2023-12-04T05:04:11;36.00;;;17.40;;
62435;SDS011;48480;50.252;18.848;2023-12-04T05:06:55;35.00;;;17.80;;
62435;SDS011;48480;50.252;18.848;2023-12-04T05:09:39;31.20;;;15.60;;
62435;SDS011;48480;50.252;18.848;2023-12-04T05:12:23;31.50;;;15.80;;
62435;SDS011;48480;50.252;18.848;2023-12-04T05:15:08;25.50;;;13.90;;
62435;SDS011;48480;50.252;18.848;2023-12-04T05:17:53;29.90;;;15.20;;
62435;SDS011;48480;50.252;18.848;2023-12-04T05:20:37;26.40;;;14.90;;
62435;SDS011;48480;50.252;18.848;2023-12-04T05:23:21;33.30;;;18.70;;
62435;SDS011;48480;50.252;18.848;2023-12-04T05:26:06;35.00;;;18.40;;
62435;SDS011;48480;50.252;18.848;2023-12-04T05:28:51;32.30;;;17.60;;
62435;SDS011;48480;50.252;18.848;2023-12-04T05:31:34;31.00;;;17.90;;
62435;SDS011;48480;50.252;18.848;2023-12-04T05:34:19;34.70;;;20.00;;
62435;SDS011;48480;50.252;18.848;2023-12-04T05:37:03;37.00;;;23.10;;
62435;SDS011;48480;50.252;18.848;2023-12-04T05:39:48;35.40;;;20.90;;
62435;SDS011;48480;50.252;18.848;2023-12-04T05:42:32;32.30;;;18.10;;
62435;SDS011;48480;50.252;18.848;2023-12-04T05:45:17;33.20;;;19.10;;
62435;SDS011;48480;50.252;18.848;2023-12-04T05:48:01;26.80;;;14.50;;
62435;SDS011;48480;50.252;18.848;2023-12-04T05:50:45;23.80;;;14.00;;
62435;SDS011;48480;50.252;18.848;2023-12-04T05:53:29;25.70;;;14.20;;
62435;SDS011;48480;50.252;18.848;2023-12-04T05:56:13;32.50;;;21.10;;
62435;SDS011;48480;50.252;18.848;2023-12-04T05:58:57;33.30;;;18.20;;
62435;SDS011;48480;50.252;18.848;2023-12-04T06:01:41;28.80;;;17.50;;
62435;SDS011;48480;50.252;18.848;2023-12-04T06:04:25;33.40;;;18.60;;
62435;SDS011;48480;50.252;18.848;2023-12-04T06:07:10;33.40;;;17.30;;
62435;SDS011;48480;50.252;18.848;2023-12-04T06:09:54;25.80;;;14.80;;
62435;SDS011;48480;50.252;18.848;2023-12-04T06:12:38;36.90;;;19.10;;
62435;SDS011;48480;50.252;18.848;2023-12-04T06:15:22;36.60;;;21.60;;
62435;SDS011;48480;50.252;18.848;2023-12-04T06:18:06;33.10;;;19.10;;
62435;SDS011;48480;50.252;18.848;2023-12-04T06:20:50;31.90;;;21.60;;
62435;SDS011;48480;50.252;18.848;2023-12-04T06:23:34;41.10;;;23.00;;
62435;SDS011;48480;50.252;18.848;2023-12-04T06:26:19;41.00;;;22.00;;
62435;SDS011;48480;50.252;18.848;2023-12-04T06:29:03;42.00;;;25.00;;
62435;SDS011;48480;50.252;18.848;2023-12-04T06:31:48;43.00;;;23.40;;
62435;SDS011;48480;50.252;18.848;2023-12-04T06:34:32;35.20;;;17.60;;
62435;SDS011;48480;50.252;18.848;2023-12-04T06:37:17;27.40;;;15.60;;
62435;SDS011;48480;50.252;18.848;2023-12-04T06:40:02;24.80;;;15.40;;
62435;SDS011;48480;50.252;18.848;2023-12-04T06:42:46;32.90;;;15.80;;
62435;SDS011;48480;50.252;18.848;2023-12-04T06:45:30;28.60;;;14.40;;
62435;SDS011;48480;50.252;18.848;2023-12-04T06:48:15;24.50;;;15.20;;
62435;SDS011;48480;50.252;18.848;2023-12-04T06:51:00;21.90;;;13.30;;
62435;SDS011;48480;50.252;18.848;2023-12-04T06:53:46;29.60;;;16.20;;
62435;SDS011;48480;50.252;18.848;2023-12-04T06:56:30;29.50;;;15.30;;
62435;SDS011;48480;50.252;18.848;2023-12-04T06:59:14;27.20;;;14.60;;
62435;SDS011;48480;50.252;18.848;2023-12-04T07:01:58;35.60;;;18.40;;
62435;SDS011;48480;50.252;18.848;2023-12-04T07:04:42;35.60;;;18.80;;
62435;SDS011;48480;50.252;18.848;2023-12-04T07:07:26;35.50;;;19.10;;
62435;SDS011;48480;50.252;18.848;2023-12-04T07:10:10;36.20;;;20.30;;
62435;SDS011;48480;50.252;18.848;2023-12-04T07:12:58;31.50;;;18.70;;
62435;SDS011;48480;50.252;18.848;2023-12-04T07:15:42;28.80;;;17.40;;
62435;SDS011;48480;50.252;18.848;2023-12-04T07:18:26;31.00;;;17.20;;
62435;SDS011;48480;50.252;18.848;2023-12-04T07:21:10;36.80;;;19.40;;
62435;SDS011;48480;50.252;18.848;2023-12-04T07:23:54;34.20;;;19.40;;
62435;SDS011;48480;50.252;18.848;2023-12-04T07:26:39;33.80;;;19.20;;
62435;SDS011;48480;50.252;18.848;2023-12-04T07:29:23;31.90;;;16.30;;
62435;SDS011;48480;50.252;18.848;2023-12-04T07:32:07;28.40;;;15.70;;
62435;SDS011;48480;50.252;18.848;2023-12-04T07:34:51;32.00;;;17.00;;
62435;SDS011;48480;50.252;18.848;2023-12-04T07:37:35;29.70;;;15.30;;
62435;SDS011;48480;50.252;18.848;2023-12-04T07:40:20;33.40;;;17.90;;
62435;SDS011;48480;50.252;18.848;2023-12-04T07:43:07;26.20;;;15.50;;
62435;SDS011;48480;50.252;18.848;2023-12-04T07:45:51;25.70;;;15.30;;
62435;SDS011;48480;50.252;18.848;2023-12-04T07:48:35;24.20;;;14.10;;
62435;SDS011;48480;50.252;18.848;2023-12-04T07:51:19;23.30;;;13.10;;
62435;SDS011;48480;50.252;18.848;2023-12-04T07:54:04;28.70;;;17.70;;
62435;SDS011;48480;50.252;18.848;2023-12-04T07:56:49;33.10;;;19.10;;
62435;SDS011;48480;50.252;18.848;2023-12-04T07:59:33;32.70;;;18.50;;
62435;SDS011;48480;50.252;18.848;2023-12-04T08:02:18;34.90;;;18.50;;
62435;SDS011;48480;50.252;18.848;2023-12-04T08:05:02;29.20;;;16.10;;
62435;SDS011;48480;50.252;18.848;2023-12-04T08:07:47;34.20;;;17.70;;
62435;SDS011;48480;50.252;18.848;2023-12-04T08:10:31;32.80;;;19.50;;
62435;SDS011;48480;50.252;18.848;2023-12-04T08:13:15;35.90;;;20.20;;
62435;SDS011;48480;50.252;18.848;2023-12-04T08:16:00;35.00;;;19.80;;
62435;SDS011;48480;50.252;18.848;2023-12-04T08:18:44;42.10;;;22.30;;
62435;SDS011;48480;50.252;18.848;2023-12-04T08:21:28;41.60;;;22.10;;
62435;SDS011;48480;50.252;18.848;2023-12-04T08:24:12;40.90;;;19.50;;
62435;SDS011;48480;50.252;18.848;2023-12-04T08:26:56;36.20;;;17.60;;
62435;SDS011;48480;50.252;18.848;2023-12-04T08:29:40;51.30;;;23.20;;
62435;SDS011;48480;50.252;18.848;2023-12-04T08:32:24;41.40;;;22.10;;
62435;SDS011;48480;50.252;18.848;2023-12-04T08:35:10;39.30;;;20.20;;
62435;SDS011;48480;50.252;18.848;2023-12-04T08:37:54;42.10;;;22.90;;
62435;SDS011;48480;50.252;18.848;2023-12-04T08:40:38;41.00;;;21.40;;
62435;SDS011;48480;50.252;18.848;2023-12-04T08:43:23;36.20;;;19.60;;
62435;SDS011;48480;50.252;18.848;2023-12-04T08:46:11;47.20;;;23.20;;
62435;SDS011;48480;50.252;18.848;2023-12-04T08:48:56;39.90;;;22.20;;
62435;SDS011;48480;50.252;18.848;2023-12-04T08:51:39;38.30;;;22.10;;
62435;SDS011;48480;50.252;18.848;2023-12-04T08:54:24;48.50;;;26.70;;
62435;SDS011;48480;50.252;18.848;2023-12-04T08:57:08;49.00;;;29.10;;
62435;SDS011;48480;50.252;18.848;2023-12-04T08:59:53;51.60;;;28.60;;
62435;SDS011;48480;50.252;18.848;2023-12-04T09:02:37;41.00;;;24.30;;
62435;SDS011;48480;50.252;18.848;2023-12-04T09:05:22;43.00;;;24.20;;
62435;SDS011;48480;50.252;18.848;2023-12-04T09:08:06;36.10;;;22.50;;
62435;SDS011;48480;50.252;18.848;2023-12-04T09:10:51;40.10;;;24.70;;
62435;SDS011;48480;50.252;18.848;2023-12-04T09:13:35;37.20;;;22.20;;
62435;SDS011;48480;50.252;18.848;2023-12-04T09:16:20;32.70;;;19.70;;
62435;SDS011;48480;50.252;18.848;2023-12-04T09:19:04;32.50;;;20.20;;
62435;SDS011;48480;50.252;18.848;2023-12-04T09:21:48;36.10;;;22.90;;
62435;SDS011;48480;50.252;18.848;2023-12-04T09:24:32;40.50;;;22.40;;
62435;SDS011;48480;50.252;18.848;2023-12-04T09:27:17;30.70;;;19.80;;
62435;SDS011;48480;50.252;18.848;2023-12-04T09:30:01;31.50;;;19.90;;
62435;SDS011;48480;50.252;18.848;2023-12-04T09:32:46;33.90;;;20.80;;
62435;SDS011;48480;50.252;18.848;2023-12-04T09:35:30;27.10;;;15.90;;
62435;SDS011;48480;50.252;18.848;2023-12-04T09:38:14;27.00;;;15.80;;
62435;SDS011;48480;50.252;18.848;2023-12-04T09:40:58;21.40;;;14.10;;
62435;SDS011;48480;50.252;18.848;2023-12-04T09:43:45;23.30;;;15.90;;
62435;SDS011;48480;50.252;18.848;2023-12-04T09:46:31;22.20;;;14.30;;
62435;SDS011;48480;50.252;18.848;2023-12-04T09:49:15;20.20;;;13.90;;
62435;SDS011;48480;50.252;18.848;2023-12-04T09:52:02;21.40;;;13.50;;
62435;SDS011;48480;50.252;18.848;2023-12-04T09:54:47;21.00;;;13.80;;
62435;SDS011;48480;50.252;18.848;2023-12-04T09:57:31;20.80;;;14.30;;
62435;SDS011;48480;50.252;18.848;2023-12-04T10:00:17;29.30;;;16.90;;
62435;SDS011;48480;50.252;18.848;2023-12-04T10:03:02;22.80;;;13.90;;
62435;SDS011;48480;50.252;18.848;2023-12-04T10:05:47;23.40;;;14.20;;
62435;SDS011;48480;50.252;18.848;2023-12-04T10:08:33;28.10;;;16.20;;
62435;SDS011;48480;50.252;18.848;2023-12-04T10:11:17;24.80;;;15.90;;
62435;SDS011;48480;50.252;18.848;2023-12-04T10:14:01;21.80;;;13.20;;
62435;SDS011;48480;50.252;18.848;2023-12-04T10:16:46;23.20;;;13.00;;
62435;SDS011;48480;50.252;18.848;2023-12-04T10:19:31;22.80;;;14.30;;
62435;SDS011;48480;50.252;18.848;2023-12-04T10:22:17;22.60;;;14.30;;
62435;SDS011;48480;50.252;18.848;2023-12-04T10:25:13;22.10;;;14.30;;
62435;SDS011;48480;50.252;18.848;2023-12-04T10:28:07;21.90;;;13.70;;
62435;SDS011;48480;50.252;18.848;2023-12-04T10:30:55;23.30;;;14.80;;
62435;SDS011;48480;50.252;18.848;2023-12-04T10:33:40;25.30;;;18.20;;
62435;SDS011;48480;50.252;18.848;2023-12-04T10:36:24;25.80;;;17.60;;
62435;SDS011;48480;50.252;18.848;2023-12-04T10:39:09;23.20;;;16.80;;
62435;SDS011;48480;50.252;18.848;2023-12-04T10:42:02;24.20;;;15.70;;
62435;SDS011;48480;50.252;18.848;2023-12-04T10:44:46;24.70;;;14.60;;
62435;SDS011;48480;50.252;18.848;2023-12-04T10:47:30;19.00;;;12.40;;
62435;SDS011;48480;50.252;18.848;2023-12-04T10:50:15;21.00;;;13.00;;
62435;SDS011;48480;50.252;18.848;2023-12-04T10:53:01;21.80;;;12.60;;
62435;SDS011;48480;50.252;18.848;2023-12-04T10:55:49;24.30;;;14.80;;
62435;SDS011;48480;50.252;18.848;2023-12-04T10:58:40;21.70;;;14.00;;
62435;SDS011;48480;50.252;18.848;2023-12-04T11:01:25;21.20;;;13.70;;
62435;SDS011;48480;50.252;18.848;2023-12-04T11:04:10;21.80;;;12.30;;
62435;SDS011;48480;50.252;18.848;2023-12-04T11:07:04;19.10;;;12.10;;
62435;SDS011;48480;50.252;18.848;2023-12-04T11:09:50;21.90;;;11.80;;
62435;SDS011;48480;50.252;18.848;2023-12-04T11:12:35;19.60;;;11.80;;
62435;SDS011;48480;50.252;18.848;2023-12-04T11:15:20;22.40;;;12.80;;
62435;SDS011;48480;50.252;18.848;2023-12-04T11:18:09;24.10;;;12.50;;
62435;SDS011;48480;50.252;18.848;2023-12-04T11:20:59;23.40;;;13.90;;
62435;SDS011;48480;50.252;18.848;2023-12-04T11:23:48;21.10;;;12.10;;
62435;SDS011;48480;50.252;18.848;2023-12-04T11:26:33;23.40;;;13.40;;
62435;SDS011;48480;50.252;18.848;2023-12-04T11:29:18;23.00;;;14.20;;
62435;SDS011;48480;50.252;18.848;2023-12-04T11:32:06;23.40;;;14.60;;
62435;SDS011;48480;50.252;18.848;2023-12-04T11:34:53;22.10;;;13.00;;
62435;SDS011;48480;50.252;18.848;2023-12-04T11:37:46;21.50;;;12.30;;
62435;SDS011;48480;50.252;18.848;2023-12-04T11:40:31;22.40;;;13.60;;
62435;SDS011;48480;50.252;18.848;2023-12-04T11:43:28;24.40;;;13.80;;
62435;SDS011;48480;50.252;18.848;2023-12-04T11:46:19;19.70;;;11.90;;
62435;SDS011;48480;50.252;18.848;2023-12-04T11:52:09;15.20;;;9.40;;
62435;SDS011;48480;50.252;18.848;2023-12-04T11:54:58;21.10;;;11.50;;
62435;SDS011;48480;50.252;18.848;2023-12-04T11:57:50;21.40;;;12.90;;
62435;SDS011;48480;50.252;18.848;2023-12-04T12:00:35;23.20;;;14.50;;
62435;SDS011;48480;50.252;18.848;2023-12-04T12:03:20;23.00;;;14.00;;
62435;SDS011;48480;50.252;18.848;2023-12-04T12:06:05;23.70;;;13.50;;
62435;SDS011;48480;50.252;18.848;2023-12-04T12:08:50;20.80;;;12.30;;
62435;SDS011;48480;50.252;18.848;2023-12-04T12:11:35;20.20;;;12.90;;
62435;SDS011;48480;50.252;18.848;2023-12-04T12:14:20;18.80;;;11.60;;
62435;SDS011;48480;50.252;18.848;2023-12-04T12:17:05;21.30;;;13.40;;
62435;SDS011;48480;50.252;18.848;2023-12-04T12:19:50;21.60;;;11.50;;
62435;SDS011;48480;50.252;18.848;2023-12-04T12:22:34;23.80;;;13.00;;
62435;SDS011;48480;50.252;18.848;2023-12-04T12:25:20;19.90;;;11.50;;
62435;SDS011;48480;50.252;18.848;2023-12-04T12:28:06;20.20;;;11.50;;
62435;SDS011;48480;50.252;18.848;2023-12-04T12:30:50;20.10;;;11.80;;
62435;SDS011;48480;50.252;18.848;2023-12-04T12:33:36;23.10;;;12.00;;
62435;SDS011;48480;50.252;18.848;2023-12-04T12:36:20;21.60;;;12.10;;
62435;SDS011;48480;50.252;18.848;2023-12-04T12:39:05;22.00;;;13.90;;
62435;SDS011;48480;50.252;18.848;2023-12-04T12:41:53;25.30;;;14.40;;
62435;SDS011;48480;50.252;18.848;2023-12-04T12:44:40;25.90;;;14.20;;
62435;SDS011;48480;50.252;18.848;2023-12-04T12:47:27;24.60;;;13.70;;
62435;SDS011;48480;50.252;18.848;2023-12-04T12:50:11;25.60;;;14.60;;
62435;SDS011;48480;50.252;18.848;2023-12-04T12:52:57;26.20;;;13.30;;
62435;SDS011;48480;50.252;18.848;2023-12-04T12:55:41;19.40;;;12.40;;
62435;SDS011;48480;50.252;18.848;2023-12-04T12:58:27;25.10;;;14.40;;
62435;SDS011;48480;50.252;18.848;2023-12-04T13:01:12;21.50;;;13.30;;
62435;SDS011;48480;50.252;18.848;2023-12-04T13:03:56;23.40;;;12.90;;
62435;SDS011;48480;50.252;18.848;2023-12-04T13:06:41;22.50;;;12.40;;
62435;SDS011;48480;50.252;18.848;2023-12-04T13:09:26;21.90;;;13.10;;
62435;SDS011;48480;50.252;18.848;2023-12-04T13:12:11;21.10;;;12.50;;
62435;SDS011;48480;50.252;18.848;2023-12-04T13:14:43;18.10;;;10.30;;
62435;SDS011;48480;50.252;18.848;2023-12-04T13:17:28;20.60;;;11.90;;
62435;SDS011;48480;50.252;18.848;2023-12-04T13:20:12;19.20;;;11.00;;
62435;SDS011;48480;50.252;18.848;2023-12-04T13:22:57;22.10;;;12.40;;
62435;SDS011;48480;50.252;18.848;2023-12-04T13:25:42;23.00;;;12.90;;
62435;SDS011;48480;50.252;18.848;2023-12-04T13:28:27;27.50;;;14.20;;
62435;SDS011;48480;50.252;18.848;2023-12-04T13:31:11;23.50;;;13.10;;
62435;SDS011;48480;50.252;18.848;2023-12-04T13:33:56;22.90;;;13.40;;
62435;SDS011;48480;50.252;18.848;2023-12-04T13:36:40;22.00;;;12.70;;
62435;SDS011;48480;50.252;18.848;2023-12-04T13:39:25;21.90;;;12.40;;
62435;SDS011;48480;50.252;18.848;2023-12-04T13:42:31;20.20;;;12.00;;
62435;SDS011;48480;50.252;18.848;2023-12-04T13:45:33;26.40;;;14.70;;
62435;SDS011;48480;50.252;18.848;2023-12-04T13:48:24;26.20;;;13.40;;
62435;SDS011;48480;50.252;18.848;2023-12-04T13:51:12;26.30;;;12.80;;
62435;SDS011;48480;50.252;18.848;2023-12-04T13:54:03;28.40;;;15.10;;
62435;SDS011;48480;50.252;18.848;2023-12-04T13:57:00;21.30;;;13.60;;
62435;SDS011;48480;50.252;18.848;2023-12-04T13:59:44;27.10;;;16.30;;
62435;SDS011;48480;50.252;18.848;2023-12-04T14:02:28;24.50;;;16.30;;
62435;SDS011;48480;50.252;18.848;2023-12-04T14:05:12;26.30;;;16.40;;
62435;SDS011;48480;50.252;18.848;2023-12-04T14:08:10;27.60;;;17.10;;
62435;SDS011;48480;50.252;18.848;2023-12-04T14:11:03;31.00;;;17.40;;
62435;SDS011;48480;50.252;18.848;2023-12-04T14:13:49;37.80;;;21.60;;
62435;SDS011;48480;50.252;18.848;2023-12-04T14:16:33;32.10;;;19.00;;
62435;SDS011;48480;50.252;18.848;2023-12-04T14:19:17;33.30;;;18.70;;
62435;SDS011;48480;50.252;18.848;2023-12-04T14:22:05;30.00;;;16.90;;
62435;SDS011;48480;50.252;18.848;2023-12-04T14:24:49;31.00;;;18.50;;
62435;SDS011;48480;50.252;18.848;2023-12-04T14:27:36;32.20;;;19.10;;
62435;SDS011;48480;50.252;18.848;2023-12-04T14:30:23;29.70;;;16.80;;
62435;SDS011;48480;50.252;18.848;2023-12-04T14:33:07;33.20;;;17.90;;
62435;SDS011;48480;50.252;18.848;2023-12-04T14:35:53;29.30;;;16.60;;
62435;SDS011;48480;50.252;18.848;2023-12-04T14:38:37;26.70;;;15.90;;
62435;SDS011;48480;50.252;18.848;2023-12-04T14:41:22;26.70;;;15.20;;
62435;SDS011;48480;50.252;18.848;2023-12-04T14:44:06;28.60;;;16.40;;
62435;SDS011;48480;50.252;18.848;2023-12-04T14:46:51;25.20;;;15.80;;
62435;SDS011;48480;50.252;18.848;2023-12-04T14:49:35;26.30;;;14.90;;
62435;SDS011;48480;50.252;18.848;2023-12-04T14:52:19;29.80;;;15.70;;
62435;SDS011;48480;50.252;18.848;2023-12-04T14:55:06;32.50;;;16.80;;
62435;SDS011;48480;50.252;18.848;2023-12-04T14:57:53;34.60;;;18.00;;
62435;SDS011;48480;50.252;18.848;2023-12-04T15:00:56;23.80;;;13.50;;
62435;SDS011;48480;50.252;18.848;2023-12-04T15:03:59;33.70;;;18.90;;
62435;SDS011;48480;50.252;18.848;2023-12-04T15:07:02;36.10;;;20.40;;
62435;SDS011;48480;50.252;18.848;2023-12-04T15:10:06;29.60;;;17.70;;
62435;SDS011;48480;50.252;18.848;2023-12-04T15:13:03;33.40;;;18.60;;
62435;SDS011;48480;50.252;18.848;2023-12-04T15:15:50;40.30;;;19.40;;
62435;SDS011;48480;50.252;18.848;2023-12-04T15:19:03;44.90;;;24.20;;
62435;SDS011;48480;50.252;18.848;2023-12-04T15:21:50;30.80;;;16.50;;
62435;SDS011;48480;50.252;18.848;2023-12-04T15:24:37;44.90;;;22.80;;
62435;SDS011;48480;50.252;18.848;2023-12-04T15:27:21;38.10;;;20.70;;
62435;SDS011;48480;50.252;18.848;2023-12-04T15:30:06;37.60;;;20.60;;
62435;SDS011;48480;50.252;18.848;2023-12-04T15:32:52;30.80;;;17.30;;
62435;SDS011;48480;50.252;18.848;2023-12-04T15:35:36;26.10;;;15.10;;
62435;SDS011;48480;50.252;18.848;2023-12-04T15:38:21;36.90;;;21.50;;
62435;SDS011;48480;50.252;18.848;2023-12-04T15:41:05;53.50;;;26.70;;
62435;SDS011;48480;50.252;18.848;2023-12-04T15:43:50;38.20;;;20.40;;
62435;SDS011;48480;50.252;18.848;2023-12-04T15:46:36;36.50;;;20.30;;
62435;SDS011;48480;50.252;18.848;2023-12-04T15:49:20;29.00;;;17.50;;
62435;SDS011;48480;50.252;18.848;2023-12-04T15:52:04;37.70;;;20.20;;
62435;SDS011;48480;50.252;18.848;2023-12-04T15:54:49;35.50;;;19.70;;
62435;SDS011;48480;50.252;18.848;2023-12-04T15:57:33;33.60;;;20.30;;